Time;durP1;ratioP1;P1;durP2;ratioP2;P2;SDS_P1;SDS_P2;PMS_P1;PMS_P2;Temp;Humidity;BMP_temperature;BMP_pressure;BME280_temperature;BME280_humidity;BME280_pressure;Samples;Min_cycle;Max_cycle;Signal;HPM_P1;HPM_P2
2021/12/09 00:00:11;;;;;;;14.38;5.25;;;3.60;89.00;;;;;;5003205;28;20030;-77
2021/12/09 00:02:38;;;;;;;16.50;5.57;;;3.60;89.10;;;;;;5001337;28;20034;-73
2021/12/09 00:05:06;;;;;;;12.05;5.28;;;3.50;89.20;;;;;;4998452;28;20051;-75
2021/12/09 00:07:32;;;;;;;11.93;5.10;;;3.40;89.00;;;;;;5001701;28;20027;-75
2021/12/09 00:09:58;;;;;;;11.85;5.43;;;3.40;89.10;;;;;;5004659;28;20057;-76
2021/12/09 00:12:24;;;;;;;14.93;6.65;;;3.40;89.10;;;;;;4995152;28;20039;-76
2021/12/09 00:14:50;;;;;;;12.82;5.22;;;3.40;89.20;;;;;;5018184;28;20090;-75
2021/12/09 00:17:16;;;;;;;12.90;5.53;;;3.30;89.30;;;;;;5000716;28;20102;-76
2021/12/09 00:19:42;;;;;;;14.20;5.55;;;3.30;89.20;;;;;;5001255;28;20039;-74
2021/12/09 00:22:11;;;;;;;11.43;5.07;;;3.20;89.30;;;;;;5003945;28;20029;-76
2021/12/09 00:24:38;;;;;;;15.88;6.22;;;3.20;89.30;;;;;;5004929;28;20073;-76
2021/12/09 00:27:04;;;;;;;11.40;4.97;;;3.20;89.30;;;;;;5001674;28;20027;-75
2021/12/09 00:29:30;;;;;;;11.77;5.55;;;3.20;89.30;;;;;;5002677;28;20038;-76
2021/12/09 00:31:56;;;;;;;12.88;5.05;;;3.10;89.30;;;;;;4999252;28;20070;-75
2021/12/09 00:34:31;;;;;;;14.32;6.22;;;3.10;89.40;;;;;;4997413;28;20102;-75
2021/12/09 00:37:03;;;;;;;15.20;5.97;;;3.10;89.40;;;;;;5019179;28;20046;-75
2021/12/09 00:39:30;;;;;;;15.73;5.93;;;3.10;89.50;;;;;;4985252;28;20042;-77
2021/12/09 00:41:56;;;;;;;13.07;6.22;;;3.10;89.50;;;;;;4995691;28;20042;-75
2021/12/09 00:44:22;;;;;;;17.10;6.20;;;3.10;89.70;;;;;;4981781;28;20042;-74
2021/12/09 00:46:48;;;;;;;16.63;5.75;;;3.10;89.70;;;;;;4980714;28;21995;-76
2021/12/09 00:49:14;;;;;;;14.10;5.55;;;3.00;89.80;;;;;;4978773;28;20031;-77
2021/12/09 00:51:39;;;;;;;13.98;5.25;;;3.10;89.80;;;;;;4999576;28;20042;-75
2021/12/09 00:54:05;;;;;;;15.93;5.22;;;3.00;89.60;;;;;;4982210;28;20034;-77
2021/12/09 00:56:31;;;;;;;14.77;5.20;;;3.10;89.80;;;;;;4980759;28;20038;-74
2021/12/09 00:58:57;;;;;;;14.35;5.15;;;3.10;89.70;;;;;;4987709;28;20027;-74
2021/12/09 01:01:24;;;;;;;14.23;4.82;;;3.10;89.70;;;;;;4977566;28;20062;-76
2021/12/09 01:03:51;;;;;;;13.05;4.88;;;3.10;89.70;;;;;;4982032;28;20035;-76
2021/12/09 01:06:17;;;;;;;14.63;5.13;;;3.10;89.70;;;;;;4980226;28;20039;-74
2021/12/09 01:08:43;;;;;;;13.07;4.90;;;3.10;89.80;;;;;;4981651;28;20035;-76
2021/12/09 01:11:11;;;;;;;12.68;4.95;;;3.20;89.70;;;;;;4990148;28;20054;-78
2021/12/09 01:13:37;;;;;;;14.98;5.50;;;3.20;89.60;;;;;;4980121;28;20031;-77
2021/12/09 01:16:04;;;;;;;13.57;5.38;;;3.20;89.50;;;;;;4992501;28;20023;-77
2021/12/09 01:18:30;;;;;;;12.95;4.60;;;3.20;89.40;;;;;;4979706;28;20054;-74
2021/12/09 01:20:57;;;;;;;18.98;6.18;;;3.20;89.30;;;;;;4982512;28;20042;-76
2021/12/09 01:23:23;;;;;;;14.18;5.03;;;3.20;89.30;;;;;;4982784;28;20532;-75
2021/12/09 01:25:51;;;;;;;14.90;4.80;;;3.30;89.10;;;;;;4977108;28;20042;-75
2021/12/09 01:28:25;;;;;;;15.38;4.85;;;3.30;88.80;;;;;;4981484;28;20031;-75
2021/12/09 01:30:59;;;;;;;14.50;5.47;;;3.40;88.80;;;;;;4983041;28;20042;-75
2021/12/09 01:33:25;;;;;;;16.50;4.78;;;3.40;88.70;;;;;;4978069;28;20035;-76
2021/12/09 01:35:50;;;;;;;14.02;4.43;;;3.40;88.60;;;;;;4980332;28;20049;-75
2021/12/09 01:38:17;;;;;;;14.55;5.03;;;3.40;88.60;;;;;;4983078;28;20035;-74
2021/12/09 01:40:44;;;;;;;13.65;4.32;;;3.40;88.50;;;;;;5009176;28;20035;-75
2021/12/09 01:43:10;;;;;;;16.90;4.80;;;3.30;88.50;;;;;;4980240;28;20034;-74
2021/12/09 01:45:36;;;;;;;14.45;4.90;;;3.40;88.50;;;;;;4981822;28;20037;-75
2021/12/09 01:48:02;;;;;;;12.23;4.75;;;3.30;88.50;;;;;;4983580;28;20054;-76
2021/12/09 01:50:28;;;;;;;13.65;4.40;;;3.40;88.50;;;;;;4980820;28;20065;-74
2021/12/09 01:52:54;;;;;;;13.85;5.00;;;3.40;88.40;;;;;;4977741;28;20051;-75
2021/12/09 01:55:21;;;;;;;17.75;4.80;;;3.40;88.30;;;;;;4982567;28;20038;-73
2021/12/09 01:57:48;;;;;;;13.40;4.47;;;3.40;88.50;;;;;;5002635;28;20114;-73
2021/12/09 02:00:19;;;;;;;10.35;4.32;;;3.30;88.50;;;;;;5000753;28;20094;-73
2021/12/09 02:02:45;;;;;;;14.60;4.35;;;3.30;88.50;;;;;;5002185;28;20109;-74
2021/12/09 02:05:12;;;;;;;21.08;4.88;;;3.30;88.40;;;;;;4999194;28;20038;-74
2021/12/09 02:07:39;;;;;;;14.43;4.07;;;3.30;88.60;;;;;;4999460;28;20065;-75
2021/12/09 02:10:07;;;;;;;14.73;4.43;;;3.20;88.70;;;;;;5001359;28;20039;-75
2021/12/09 02:12:33;;;;;;;12.00;3.90;;;3.30;88.80;;;;;;5000418;28;20054;-76
2021/12/09 02:15:00;;;;;;;13.20;4.50;;;3.30;88.70;;;;;;5001243;28;20030;-75
2021/12/09 02:17:27;;;;;;;16.60;4.57;;;3.30;88.90;;;;;;5002270;28;20038;-75
2021/12/09 02:19:57;;;;;;;13.10;4.40;;;3.30;89.00;;;;;;5000542;28;20106;-78
2021/12/09 02:22:23;;;;;;;13.65;4.28;;;3.20;89.20;;;;;;4996356;28;20030;-77
2021/12/09 02:24:48;;;;;;;14.57;4.15;;;3.20;89.20;;;;;;4997174;28;20031;-75
2021/12/09 02:27:14;;;;;;;12.27;4.05;;;3.30;89.30;;;;;;4999693;28;20045;-78
2021/12/09 02:29:41;;;;;;;14.68;3.92;;;3.30;89.40;;;;;;5006595;28;20804;-76
2021/12/09 02:32:07;;;;;;;11.00;3.58;;;3.30;89.40;;;;;;5002287;28;20027;-76
2021/12/09 02:34:34;;;;;;;12.52;3.63;;;3.30;89.40;;;;;;5001442;28;20030;-78
2021/12/09 02:37:00;;;;;;;17.88;4.18;;;3.30;89.40;;;;;;5001035;28;20039;-76
2021/12/09 02:39:25;;;;;;;12.13;3.45;;;3.40;89.50;;;;;;4998461;28;20069;-76
2021/12/09 02:41:51;;;;;;;13.50;3.67;;;3.40;89.40;;;;;;5001646;28;20038;-77
2021/12/09 02:44:20;;;;;;;16.63;4.18;;;3.40;89.30;;;;;;5003018;28;20033;-78
2021/12/09 02:46:51;;;;;;;12.35;3.38;;;3.40;89.30;;;;;;5011775;28;20035;-75
2021/12/09 02:49:20;;;;;;;13.65;4.53;;;3.50;89.30;;;;;;4996515;28;20061;-77
2021/12/09 02:51:49;;;;;;;12.25;3.63;;;3.50;89.30;;;;;;4994644;28;20038;-77
2021/12/09 02:54:16;;;;;;;16.83;3.97;;;3.60;89.30;;;;;;5012288;28;20035;-75
2021/12/09 02:56:45;;;;;;;19.30;3.72;;;3.60;89.30;;;;;;5001509;28;20034;-76
2021/12/09 02:59:11;;;;;;;16.40;3.55;;;3.60;89.30;;;;;;5002031;28;20052;-75
2021/12/09 03:02:07;;;;;;;14.05;4.22;;;3.70;89.20;;;;;;5000036;28;20045;-76
2021/12/09 03:04:41;;;;;;;11.25;3.42;;;3.70;89.20;;;;;;5001055;28;20538;-76
2021/12/09 03:07:15;;;;;;;;;;;3.70;89.30;;;;;;4992790;28;20478;-76
2021/12/09 03:09:49;;;;;;;9.52;3.00;;;3.70;89.30;;;;;;5014249;28;19977;-74
2021/12/09 03:12:21;;;;;;;12.07;3.13;;;3.80;89.20;;;;;;4998778;28;20065;-77
2021/12/09 03:14:48;;;;;;;12.48;3.10;;;3.70;89.30;;;;;;5006965;28;20040;-76
2021/12/09 03:17:13;;;;;;;16.90;3.88;;;3.70;89.40;;;;;;5001700;28;20039;-76
2021/12/09 03:19:39;;;;;;;14.90;3.45;;;3.60;89.50;;;;;;5002593;28;20050;-77
2021/12/09 03:22:06;;;;;;;13.65;3.25;;;3.70;89.60;;;;;;5002844;28;20057;-76
2021/12/09 03:24:31;;;;;;;17.00;3.45;;;3.70;89.70;;;;;;5001134;28;20034;-75
2021/12/09 03:26:58;;;;;;;13.63;3.35;;;3.60;89.70;;;;;;5002812;28;20026;-77
2021/12/09 03:29:26;;;;;;;11.73;3.45;;;3.60;89.90;;;;;;4999783;28;20033;-77
2021/12/09 03:31:54;;;;;;;13.73;3.45;;;3.60;90.00;;;;;;5002195;28;20094;-74
2021/12/09 03:34:21;;;;;;;14.40;3.55;;;3.60;90.20;;;;;;5002055;28;20113;-76
2021/12/09 03:36:49;;;;;;;9.60;2.83;;;3.60;90.20;;;;;;5006201;28;20090;-75
2021/12/09 03:39:19;;;;;;;13.82;2.95;;;3.60;90.30;;;;;;5006786;28;20065;-80
2021/12/09 03:41:48;;;;;;;15.80;3.97;;;3.60;90.40;;;;;;5006796;28;20081;-75
2021/12/09 03:44:13;;;;;;;13.98;4.18;;;3.60;90.40;;;;;;5008469;28;20026;-75
2021/12/09 03:46:40;;;;;;;15.02;3.25;;;3.50;90.40;;;;;;5003840;28;20094;-76
2021/12/09 03:49:06;;;;;;;14.85;3.67;;;3.60;90.50;;;;;;5005521;28;20030;-74
2021/12/09 03:51:35;;;;;;;12.20;3.92;;;3.50;90.50;;;;;;5011134;28;20045;-76
2021/12/09 03:54:05;;;;;;;12.05;3.58;;;3.60;90.60;;;;;;5001261;28;20515;-75
2021/12/09 03:56:32;;;;;;;16.20;4.32;;;3.60;90.60;;;;;;5001659;28;20108;-77
2021/12/09 03:58:58;;;;;;;13.02;3.90;;;3.60;90.60;;;;;;5001518;28;20057;-74
2021/12/09 04:01:23;;;;;;;10.70;3.42;;;3.60;90.60;;;;;;5005130;28;20042;-73
2021/12/09 04:03:49;;;;;;;9.60;3.05;;;3.70;90.60;;;;;;5006225;28;20027;-75
2021/12/09 04:06:16;;;;;;;11.90;3.20;;;3.70;90.70;;;;;;5013318;28;20038;-75
2021/12/09 04:08:42;;;;;;;11.80;4.32;;;3.80;90.70;;;;;;5006441;28;20053;-75
2021/12/09 04:11:10;;;;;;;11.35;3.78;;;3.80;90.70;;;;;;5001702;28;20099;-75
2021/12/09 04:13:36;;;;;;;11.57;3.80;;;3.90;90.60;;;;;;5002445;28;20047;-76
2021/12/09 04:16:04;;;;;;;13.82;3.75;;;3.90;90.40;;;;;;5006226;28;20034;-76
2021/12/09 04:18:30;;;;;;;11.32;4.13;;;3.90;90.20;;;;;;5003980;28;20026;-75
2021/12/09 04:20:56;;;;;;;14.77;4.47;;;3.90;90.20;;;;;;5006744;28;20114;-75
2021/12/09 04:23:22;;;;;;;11.02;3.92;;;4.00;90.20;;;;;;5014288;28;20046;-77
2021/12/09 04:25:47;;;;;;;17.17;4.15;;;4.00;90.10;;;;;;4995815;28;20030;-74
2021/12/09 04:28:13;;;;;;;10.98;4.03;;;4.00;90.10;;;;;;5001873;28;20047;-76
2021/12/09 04:30:40;;;;;;;13.68;4.22;;;4.00;90.00;;;;;;5000465;28;20042;-75
2021/12/09 04:33:06;;;;;;;12.57;4.38;;;4.00;90.00;;;;;;5007438;28;20027;-74
2021/12/09 04:35:31;;;;;;;12.63;4.25;;;4.10;89.90;;;;;;5002969;28;20039;-75
2021/12/09 04:37:57;;;;;;;12.10;3.83;;;4.10;89.90;;;;;;4999551;28;20073;-77
2021/12/09 04:40:23;;;;;;;15.02;4.93;;;4.10;89.80;;;;;;4999764;28;20332;-73
2021/12/09 04:42:48;;;;;;;12.85;3.92;;;4.10;89.90;;;;;;5002330;28;20042;-74
2021/12/09 04:45:14;;;;;;;12.88;4.30;;;4.10;90.00;;;;;;4999350;28;20049;-75
2021/12/09 04:47:41;;;;;;;14.63;4.05;;;4.10;90.10;;;;;;4995919;28;20062;-76
2021/12/09 04:50:07;;;;;;;11.85;3.85;;;4.10;90.20;;;;;;4997439;28;20046;-76
2021/12/09 04:52:33;;;;;;;11.85;4.47;;;4.20;90.10;;;;;;4993198;28;20058;-76
2021/12/09 04:54:59;;;;;;;13.20;4.53;;;4.20;90.20;;;;;;5004889;28;20126;-76
2021/12/09 04:57:25;;;;;;;12.40;4.10;;;4.10;90.30;;;;;;5002723;28;20050;-74
2021/12/09 04:59:51;;;;;;;13.90;5.20;;;4.10;90.50;;;;;;5003203;28;20065;-73
2021/12/09 05:03:04;;;;;;;12.43;4.43;;;4.10;90.60;;;;;;5004246;28;20065;-76
2021/12/09 05:05:06;;;;;;;12.77;4.32;;;4.00;90.60;;;;;;4994614;28;20030;-74
2021/12/09 05:07:32;;;;;;;31.20;21.75;;;4.00;90.80;;;;;;5005650;28;20095;-77
2021/12/09 05:09:57;;;;;;;14.48;4.38;;;4.00;90.90;;;;;;4996019;28;20042;-75
2021/12/09 05:12:23;;;;;;;14.52;4.40;;;4.00;91.00;;;;;;4997892;28;20046;-75
2021/12/09 05:14:49;;;;;;;13.05;4.25;;;4.00;91.00;;;;;;4996561;28;20041;-74
2021/12/09 05:17:16;;;;;;;16.30;4.70;;;4.00;91.10;;;;;;4994455;28;20027;-79
2021/12/09 05:19:43;;;;;;;11.80;3.95;;;4.10;91.10;;;;;;4999616;28;20072;-75
2021/12/09 05:22:09;;;;;;;12.43;4.35;;;4.10;91.20;;;;;;4997512;28;20022;-74
2021/12/09 05:24:36;;;;;;;11.95;4.75;;;4.10;91.20;;;;;;5014142;28;20035;-75
2021/12/09 05:27:02;;;;;;;11.30;4.68;;;4.10;91.00;;;;;;4998383;28;20039;-75
2021/12/09 05:29:33;;;;;;;12.80;5.15;;;4.20;91.00;;;;;;4998012;28;20189;-76
2021/12/09 05:32:08;;;;;;;12.75;4.35;;;4.10;91.00;;;;;;4993461;28;20069;-76
2021/12/09 05:34:44;;;;;;;15.48;5.10;;;4.20;91.00;;;;;;5003251;28;20034;-75
2021/12/09 05:37:20;;;;;;;13.48;4.80;;;4.20;91.10;;;;;;5003519;28;20038;-75
2021/12/09 05:39:46;;;;;;;15.13;4.43;;;4.10;91.00;;;;;;4999341;28;20046;-73
2021/12/09 05:42:14;;;;;;;18.08;4.35;;;4.10;91.00;;;;;;4999619;28;20053;-76
2021/12/09 05:44:40;;;;;;;15.10;4.75;;;4.20;90.90;;;;;;4996816;28;20038;-76
2021/12/09 05:47:07;;;;;;;13.52;5.07;;;4.10;90.80;;;;;;5013508;28;20053;-78
2021/12/09 05:49:35;;;;;;;12.57;4.60;;;4.10;90.90;;;;;;4996659;28;20031;-76
2021/12/09 05:52:02;;;;;;;16.05;4.60;;;4.20;90.90;;;;;;4998768;28;20043;-75
2021/12/09 05:54:28;;;;;;;11.80;4.30;;;4.20;90.80;;;;;;4994082;28;20061;-75
2021/12/09 05:56:53;;;;;;;15.15;4.93;;;4.20;90.80;;;;;;4998391;28;20042;-78
2021/12/09 05:59:19;;;;;;;14.82;5.35;;;4.20;90.80;;;;;;5013922;28;20038;-74
2021/12/09 06:01:45;;;;;;;15.57;4.43;;;4.20;90.80;;;;;;4996987;28;20042;-78
2021/12/09 06:04:11;;;;;;;12.60;4.10;;;4.20;90.80;;;;;;4998118;28;20352;-75
2021/12/09 06:06:38;;;;;;;12.75;4.82;;;4.20;90.80;;;;;;5005333;28;20060;-74
2021/12/09 06:09:05;;;;;;;17.67;4.88;;;4.20;90.70;;;;;;5007764;28;20070;-75
2021/12/09 06:11:31;;;;;;;16.42;4.30;;;4.20;90.60;;;;;;5007840;28;20056;-76
2021/12/09 06:13:57;;;;;;;12.07;4.70;;;4.20;90.60;;;;;;5001027;28;20035;-76
2021/12/09 06:16:24;;;;;;;12.00;4.03;;;4.20;90.60;;;;;;4996411;28;20038;-75
2021/12/09 06:18:51;;;;;;;14.45;4.68;;;4.30;90.60;;;;;;4992676;28;20213;-73
2021/12/09 06:21:18;;;;;;;16.50;4.93;;;4.30;90.50;;;;;;4981877;28;20045;-73
2021/12/09 06:23:45;;;;;;;12.50;4.47;;;4.40;90.50;;;;;;4984611;28;20037;-74
2021/12/09 06:26:10;;;;;;;16.27;5.00;;;4.40;90.30;;;;;;4980503;28;20110;-74
2021/12/09 06:28:38;;;;;;;13.32;4.50;;;4.30;90.30;;;;;;4981346;28;20135;-73
2021/12/09 06:31:04;;;;;;;14.27;4.43;;;4.40;90.20;;;;;;4979257;28;20067;-74
2021/12/09 06:33:30;;;;;;;14.70;4.57;;;4.40;90.20;;;;;;4980246;28;20422;-72
2021/12/09 06:35:56;;;;;;;13.73;4.90;;;4.40;90.20;;;;;;4988623;28;20052;-76
2021/12/09 06:38:22;;;;;;;12.43;4.32;;;4.40;90.20;;;;;;5000944;28;20097;-74
2021/12/09 06:40:48;;;;;;;12.52;4.72;;;4.40;90.20;;;;;;4996770;28;20077;-70
2021/12/09 06:43:15;;;;;;;15.50;5.32;;;4.40;90.30;;;;;;4991561;28;20490;-70
2021/12/09 06:45:41;;;;;;;11.15;3.97;;;4.40;90.30;;;;;;4986470;28;20129;-69
2021/12/09 06:48:07;;;;;;;13.85;4.70;;;4.50;90.30;;;;;;4978131;28;20153;-69
2021/12/09 06:50:33;;;;;;;13.52;4.80;;;4.40;90.40;;;;;;4983475;28;20043;-72
2021/12/09 06:52:59;;;;;;;14.13;4.38;;;4.50;90.30;;;;;;4993953;28;20351;-71
2021/12/09 06:55:24;;;;;;;15.15;5.28;;;4.50;90.40;;;;;;4980827;28;20114;-69
2021/12/09 06:57:51;;;;;;;17.00;4.88;;;4.50;90.40;;;;;;4981104;28;20030;-69
2021/12/09 07:00:26;;;;;;;15.77;4.88;;;4.50;90.40;;;;;;4979099;28;20125;-70
2021/12/09 07:02:53;;;;;;;13.75;4.97;;;4.50;90.50;;;;;;4975559;28;20035;-70
2021/12/09 07:05:21;;;;;;;13.75;4.97;;;4.50;90.60;;;;;;4980847;28;20077;-70
2021/12/09 07:07:47;;;;;;;11.35;5.18;;;4.50;90.60;;;;;;4980957;28;20042;-68
2021/12/09 07:10:14;;;;;;;11.18;5.32;;;4.50;90.80;;;;;;4973355;28;20042;-70
2021/12/09 07:12:40;;;;;;;15.25;6.00;;;4.50;90.80;;;;;;4980754;28;20095;-70
2021/12/09 07:15:08;;;;;;;16.88;5.45;;;4.50;90.90;;;;;;4982132;28;20037;-71
2021/12/09 07:17:35;;;;;;;13.30;5.68;;;4.50;91.00;;;;;;4983082;28;20089;-70
2021/12/09 07:20:02;;;;;;;15.00;5.30;;;4.50;91.00;;;;;;4978249;28;20038;-70
2021/12/09 07:22:28;;;;;;;15.07;6.25;;;4.50;91.10;;;;;;4980064;28;20064;-70
2021/12/09 07:24:54;;;;;;;15.18;6.78;;;4.50;91.20;;;;;;4977917;28;20374;-70
2021/12/09 07:27:20;;;;;;;17.88;6.88;;;4.50;91.10;;;;;;4980281;28;20434;-70
2021/12/09 07:29:45;;;;;;;17.33;7.35;;;4.50;91.20;;;;;;4976214;28;20037;-70
2021/12/09 07:32:11;;;;;;;18.23;6.82;;;4.60;91.20;;;;;;4977602;28;20050;-70
2021/12/09 07:34:37;;;;;;;14.95;6.90;;;4.60;91.20;;;;;;4989365;28;20504;-69
2021/12/09 07:37:05;;;;;;;18.73;7.10;;;4.60;91.20;;;;;;4977924;28;20030;-72
2021/12/09 07:39:32;;;;;;;14.88;9.52;;;4.60;91.30;;;;;;4979115;28;20470;-70
2021/12/09 07:41:59;;;;;;;17.92;7.22;;;4.60;91.30;;;;;;4976677;28;20861;-71
2021/12/09 07:44:26;;;;;;;15.32;7.32;;;4.60;91.30;;;;;;4977695;28;20141;-71
2021/12/09 07:46:54;;;;;;;15.02;6.90;;;4.60;91.40;;;;;;4978916;28;20474;-70
2021/12/09 07:49:20;;;;;;;15.38;8.07;;;4.60;91.40;;;;;;4979494;28;20080;-70
2021/12/09 07:51:46;;;;;;;19.33;7.95;;;4.60;91.40;;;;;;4981537;28;20129;-71
2021/12/09 07:54:12;;;;;;;12.80;7.78;;;4.60;91.50;;;;;;4977579;28;20045;-69
2021/12/09 07:56:38;;;;;;;16.35;8.27;;;4.60;91.60;;;;;;4986137;28;20034;-71
2021/12/09 07:59:03;;;;;;;14.55;8.05;;;4.60;91.60;;;;;;4975284;28;20035;-71
2021/12/09 08:01:29;;;;;;;16.15;9.02;;;4.60;91.70;;;;;;4978515;28;20125;-73
2021/12/09 08:03:55;;;;;;;15.60;11.50;;;4.60;91.70;;;;;;4978823;28;20339;-71
2021/12/09 08:06:21;;;;;;;17.90;10.25;;;4.60;91.70;;;;;;4980187;28;20048;-69
2021/12/09 08:08:47;;;;;;;17.35;10.35;;;4.60;91.70;;;;;;4980050;28;20528;-70
2021/12/09 08:11:13;;;;;;;20.58;8.68;;;4.60;91.70;;;;;;4979257;28;20065;-72
2021/12/09 08:13:39;;;;;;;17.77;8.48;;;4.60;91.80;;;;;;4979238;28;21088;-70
2021/12/09 08:16:04;;;;;;;16.73;8.13;;;4.60;91.90;;;;;;4986754;28;20037;-73
2021/12/09 08:18:43;;;;;;;14.20;8.35;;;4.60;91.80;;;;;;4981002;28;20778;-70
2021/12/09 08:21:08;;;;;;;17.17;8.77;;;4.60;91.80;;;;;;4981537;28;20922;-70
2021/12/09 08:23:34;;;;;;;16.83;7.85;;;4.60;91.80;;;;;;4986019;28;20373;-70
2021/12/09 08:26:00;;;;;;;13.07;8.20;;;4.60;91.80;;;;;;4988146;28;20026;-72
2021/12/09 08:28:26;;;;;;;18.13;8.95;;;4.70;91.90;;;;;;4977539;28;20096;-71
2021/12/09 08:30:52;;;;;;;13.07;8.18;;;4.60;91.80;;;;;;4979860;28;20073;-70
2021/12/09 08:33:23;;;;;;;16.23;8.02;;;4.70;91.80;;;;;;4980174;28;20096;-70
2021/12/09 08:35:49;;;;;;;17.75;8.63;;;4.70;91.80;;;;;;4979334;28;20050;-70
2021/12/09 08:38:15;;;;;;;20.83;8.48;;;4.70;91.80;;;;;;4979776;28;20581;-70
2021/12/09 08:40:42;;;;;;;18.00;8.88;;;4.70;91.70;;;;;;4982853;28;20480;-70
2021/12/09 08:43:09;;;;;;;14.98;8.57;;;4.70;91.70;;;;;;4981110;28;20030;-70
2021/12/09 08:45:35;;;;;;;12.43;8.00;;;4.70;91.70;;;;;;4977733;28;20552;-72
2021/12/09 08:48:02;;;;;;;16.02;8.63;;;4.70;91.60;;;;;;4978904;28;20050;-71
2021/12/09 08:50:33;;;;;;;14.98;8.82;;;4.70;91.70;;;;;;5000270;28;20050;-69
2021/12/09 08:53:04;;;;;;;17.75;8.57;;;4.70;91.70;;;;;;4983736;28;20035;-71
2021/12/09 08:55:30;;;;;;;14.18;8.18;;;4.80;91.70;;;;;;4982342;28;20035;-69
2021/12/09 08:57:56;;;;;;;11.52;7.97;;;4.80;91.70;;;;;;4980870;28;20030;-70
2021/12/09 09:00:23;;;;;;;15.85;8.75;;;4.80;91.70;;;;;;4994733;28;20045;-70
2021/12/09 09:02:50;;;;;;;15.18;8.68;;;4.90;91.50;;;;;;4978884;28;20056;-70
2021/12/09 09:05:16;;;;;;;15.23;7.75;;;4.90;91.60;;;;;;4980811;28;20038;-72
2021/12/09 09:07:47;;;;;;;14.05;8.00;;;5.00;91.60;;;;;;4978759;28;20038;-71
2021/12/09 09:10:16;;;;;;;15.55;7.75;;;5.00;91.50;;;;;;4992053;28;20077;-71
2021/12/09 09:12:42;;;;;;;15.10;8.23;;;5.10;91.50;;;;;;4979268;28;20711;-72
2021/12/09 09:15:11;;;;;;;14.15;7.93;;;5.10;91.30;;;;;;4979448;28;20034;-74
2021/12/09 09:17:36;;;;;;;15.38;7.30;;;5.20;91.10;;;;;;4979135;28;20482;-70
2021/12/09 09:20:08;;;;;;;14.90;7.65;;;5.30;91.00;;;;;;4982051;28;20397;-71
2021/12/09 09:22:35;;;;;;;13.40;7.25;;;5.30;90.80;;;;;;4977300;28;20409;-71
2021/12/09 09:25:01;;;;;;;14.27;6.97;;;5.40;90.50;;;;;;4980422;28;20458;-71
2021/12/09 09:27:26;;;;;;;16.48;8.10;;;5.40;90.50;;;;;;4986267;28;20049;-70
2021/12/09 09:29:52;;;;;;;18.05;8.38;;;5.40;90.50;;;;;;4985453;28;20474;-69
2021/12/09 09:32:18;;;;;;;16.20;7.80;;;5.50;90.40;;;;;;4986472;28;20073;-70
2021/12/09 09:34:44;;;;;;;13.88;8.48;;;5.60;90.20;;;;;;4983792;28;20064;-70
2021/12/09 09:37:10;;;;;;;13.98;7.00;;;5.60;90.20;;;;;;5004022;28;20046;-69
2021/12/09 09:39:41;;;;;;;13.48;7.22;;;5.60;90.20;;;;;;4978782;28;20374;-70
2021/12/09 09:44:47;;;;;;;13.95;7.53;;;5.60;90.00;;;;;;4980185;28;20039;-70
2021/12/09 09:47:14;;;;;;;14.30;7.40;;;5.70;90.10;;;;;;4978140;28;20121;-69
2021/12/09 09:49:40;;;;;;;14.02;6.85;;;5.70;90.10;;;;;;4979499;28;20031;-71
2021/12/09 09:52:08;;;;;;;14.13;7.35;;;5.80;89.90;;;;;;4983348;28;20042;-70
2021/12/09 09:54:35;;;;;;;14.25;6.85;;;5.90;89.80;;;;;;4988892;28;20026;-70
2021/12/09 09:57:01;;;;;;;13.43;6.82;;;5.90;89.80;;;;;;4980419;28;20476;-70
2021/12/09 09:59:26;;;;;;;12.55;6.50;;;5.90;89.60;;;;;;4998399;28;20030;-70
2021/12/09 10:01:55;;;;;;;14.65;6.68;;;5.90;89.50;;;;;;4978326;28;20042;-69
2021/12/09 10:07:07;;;;;;;12.95;6.43;;;5.90;89.40;;;;;;4981888;28;20369;-69
2021/12/09 10:09:33;;;;;;;16.58;6.95;;;5.90;89.20;;;;;;4979678;28;20466;-70
2021/12/09 10:12:00;;;;;;;14.95;6.40;;;5.90;89.20;;;;;;4980485;28;20054;-71
2021/12/09 10:14:36;;;;;;;15.45;6.05;;;5.90;89.20;;;;;;4983347;28;20041;-70
2021/12/09 10:17:05;;;;;;;16.90;6.57;;;5.90;89.40;;;;;;4979117;28;20154;-71
2021/12/09 10:19:32;;;;;;;20.38;7.28;;;5.90;89.20;;;;;;4985866;28;20046;-71
2021/12/09 10:22:16;;;;;;;15.80;6.72;;;5.90;89.10;;;;;;4978199;28;20432;-70
2021/12/09 10:24:43;;;;;;;16.00;6.63;;;5.80;89.10;;;;;;4979943;28;20033;-71
2021/12/09 10:27:31;;;;;;;14.27;5.93;;;5.80;89.20;;;;;;4980715;28;20164;-71
2021/12/09 10:30:14;;;;;;;17.40;7.85;;;5.90;89.30;;;;;;4979852;28;20030;-70
2021/12/09 10:32:41;;;;;;;18.08;6.72;;;5.80;89.00;;;;;;4974112;28;20460;-70
2021/12/09 10:35:16;;;;;;;24.90;7.65;;;5.90;89.20;;;;;;4978704;28;20034;-72
2021/12/09 10:37:43;;;;;;;19.38;7.47;;;5.90;89.10;;;;;;4985685;28;20049;-71
2021/12/09 10:40:13;;;;;;;14.45;7.72;;;5.90;89.10;;;;;;4978661;28;20574;-69
2021/12/09 10:42:48;;;;;;;20.85;6.53;;;5.90;89.00;;;;;;4983630;28;20035;-70
2021/12/09 10:45:16;;;;;;;;;;;6.00;89.10;;;;;;4975091;28;20037;-68
2021/12/09 10:53:33;;;;;;;16.00;7.18;;;5.90;89.00;;;;;;4983824;28;20032;-70
2021/12/09 10:56:01;;;;;;;17.73;7.27;;;6.00;89.00;;;;;;5004865;28;20038;-69
2021/12/09 10:58:29;;;;;;;14.98;7.13;;;6.00;89.00;;;;;;4983302;28;20297;-69
2021/12/09 11:01:20;;;;;;;15.75;6.90;;;6.10;89.00;;;;;;4983900;28;20042;-69
2021/12/09 11:03:53;;;;;;;13.98;6.53;;;6.10;88.90;;;;;;4995832;28;20023;-69
2021/12/09 11:06:32;;;;;;;17.10;7.35;;;6.20;88.90;;;;;;4980398;28;20034;-69
2021/12/09 11:09:00;;;;;;;19.20;7.13;;;6.20;88.90;;;;;;4975811;28;20033;-68
2021/12/09 11:11:29;;;;;;;17.02;8.10;;;6.20;88.80;;;;;;4994801;28;20478;-69
2021/12/09 11:14:04;;;;;;;22.05;9.27;;;6.30;88.80;;;;;;4982689;28;20033;-69
2021/12/09 11:16:39;;;;;;;16.58;7.65;;;6.40;88.70;;;;;;4982116;28;20073;-70
2021/12/09 11:22:01;;;;;;;20.42;8.57;;;6.50;88.40;;;;;;4980150;28;20084;-70
2021/12/09 11:24:32;;;;;;;17.98;6.85;;;6.60;88.10;;;;;;4979356;28;20080;-69
2021/12/09 11:27:03;;;;;;;18.35;7.22;;;6.60;87.90;;;;;;4984340;28;20043;-68
2021/12/09 11:29:44;;;;;;;18.55;7.28;;;6.60;87.80;;;;;;5000150;28;20588;-71
2021/12/09 11:32:39;;;;;;;14.52;6.80;;;6.70;87.80;;;;;;4982046;28;20058;-71
2021/12/09 11:35:15;;;;;;;19.98;7.93;;;6.70;87.90;;;;;;4971382;28;20137;-69
2021/12/09 11:40:39;;;;;;;24.23;7.93;;;7.00;87.60;;;;;;4972313;28;20485;-74
2021/12/09 11:43:10;;;;;;;18.48;8.60;;;7.10;87.40;;;;;;4993651;28;20041;-70
2021/12/09 11:45:41;;;;;;;21.50;7.10;;;7.10;87.10;;;;;;4973069;28;20034;-71
2021/12/09 11:48:08;;;;;;;20.27;7.20;;;7.10;87.10;;;;;;4982402;28;20441;-69
2021/12/09 11:50:41;;;;;;;20.05;6.97;;;7.20;87.20;;;;;;4981353;28;20038;-69
2021/12/09 11:53:12;;;;;;;17.98;6.90;;;7.20;86.90;;;;;;4978569;28;20390;-70
2021/12/09 11:55:46;;;;;;;17.55;6.75;;;7.20;86.90;;;;;;4981083;28;20092;-71
2021/12/09 11:58:19;;;;;;;22.45;6.88;;;7.30;86.80;;;;;;4982365;28;20382;-71
2021/12/09 12:13:00;;;;;;;18.27;6.47;;;7.60;85.40;;;;;;4956672;28;20422;-71
2021/12/09 12:20:57;;;;;;;20.23;7.32;;;7.60;85.70;;;;;;4979090;28;20454;-73
2021/12/09 12:24:35;;;;;;;19.42;6.20;;;7.60;85.40;;;;;;4981550;28;20469;-70
2021/12/09 12:27:14;;;;;;;20.38;6.80;;;7.50;85.50;;;;;;4974501;28;20124;-68
2021/12/09 12:32:47;;;;;;;18.50;7.60;;;7.50;85.80;;;;;;4977020;28;20049;-69
2021/12/09 12:41:06;;;;;;;20.45;6.97;;;7.60;86.10;;;;;;4978326;28;20149;-70
2021/12/09 12:43:43;;;;;;;20.40;6.00;;;7.60;85.90;;;;;;4980259;28;20039;-69
2021/12/09 12:49:08;;;;;;;23.25;6.97;;;7.60;85.70;;;;;;4959198;28;20470;-71
2021/12/09 12:51:47;;;;;;;18.75;6.20;;;7.60;85.50;;;;;;4952377;28;20046;-69
2021/12/09 12:54:15;;;;;;;17.80;6.18;;;7.60;85.80;;;;;;4960574;28;20645;-69
2021/12/09 12:56:44;;;;;;;21.63;5.93;;;7.60;85.70;;;;;;4961449;28;20389;-70
2021/12/09 12:59:13;;;;;;;19.50;6.53;;;7.60;85.50;;;;;;4960013;28;20387;-70
2021/12/09 13:02:12;;;;;;;20.80;5.93;;;7.50;85.20;;;;;;4961066;28;20041;-69
2021/12/09 13:05:11;;;;;;;15.90;4.85;;;7.40;85.10;;;;;;4983129;28;20038;-71
2021/12/09 13:13:20;;;;;;;14.43;6.18;;;7.40;85.30;;;;;;4977042;28;20049;-69
2021/12/09 13:16:11;;;;;;;17.35;5.68;;;7.40;85.30;;;;;;4980723;28;20034;-70
2021/12/09 13:21:42;;;;;;;19.33;6.68;;;7.40;85.50;;;;;;4977565;28;20594;-70
2021/12/09 13:24:38;;;;;;;15.38;5.88;;;7.40;85.60;;;;;;4972723;28;20466;-70
2021/12/09 13:27:32;;;;;;;19.15;6.53;;;7.40;85.70;;;;;;4987731;28;20471;-69
2021/12/09 13:30:14;;;;;;;16.45;5.50;;;7.50;85.90;;;;;;4995185;28;20034;-69
2021/12/09 13:47:18;;;;;;;19.00;4.93;;;7.90;84.20;;;;;;4984166;28;20066;-70
2021/12/09 13:49:59;;;;;;;20.10;5.53;;;8.00;83.90;;;;;;4991869;28;20141;-71
2021/12/09 13:55:24;;;;;;;12.68;4.50;;;8.10;83.50;;;;;;5002943;28;20441;-72
2021/12/09 13:57:59;;;;;;;19.98;5.03;;;8.20;83.40;;;;;;4991957;28;20030;-71
2021/12/09 14:00:24;;;;;;;16.45;4.78;;;8.20;83.10;;;;;;4995134;28;20497;-71
2021/12/09 14:02:52;;;;;;;15.80;4.93;;;8.20;82.90;;;;;;4991851;28;20030;-71
2021/12/09 14:05:18;;;;;;;15.77;4.18;;;8.30;82.70;;;;;;4991345;28;20048;-70
2021/12/09 14:07:57;;;;;;;17.30;4.20;;;8.40;82.30;;;;;;5003672;28;20064;-71